sensor_id;sensor_type;location;lat;lon;timestamp;pressure;altitude;pressure_sealevel;temperature;humidity
61484;BME280;47349;55.640;37.692;2022-09-16T00:01:31;97849.91;;;8.93;99.48
61484;BME280;47349;55.640;37.692;2022-09-16T00:04:16;97841.06;;;8.92;99.55
61484;BME280;47349;55.640;37.692;2022-09-16T00:06:58;97831.41;;;8.91;99.54
61484;BME280;47349;55.640;37.692;2022-09-16T00:10:22;97814.41;;;8.72;99.53
61484;BME280;47349;55.640;37.692;2022-09-16T00:13:04;97850.06;;;9.11;99.84
61484;BME280;47349;55.640;37.692;2022-09-16T00:15:48;97826.41;;;9.08;99.59
61484;BME280;47349;55.640;37.692;2022-09-16T00:18:46;97829.44;;;9.18;99.46
61484;BME280;47349;55.640;37.692;2022-09-16T00:21:31;97817.41;;;9.02;99.01
61484;BME280;47349;55.640;37.692;2022-09-16T00:24:14;97829.91;;;9.15;98.37
61484;BME280;47349;55.640;37.692;2022-09-16T00:26:59;97840.72;;;9.27;98.40
61484;BME280;47349;55.640;37.692;2022-09-16T00:29:43;97846.25;;;9.32;98.22
61484;BME280;47349;55.640;37.692;2022-09-16T00:32:24;97807.50;;;9.10;98.00
61484;BME280;47349;55.640;37.692;2022-09-16T00:35:11;97849.75;;;9.33;97.33
61484;BME280;47349;55.640;37.692;2022-09-16T00:38:07;97820.25;;;9.08;97.54
61484;BME280;47349;55.640;37.692;2022-09-16T00:40:46;97820.03;;;9.16;97.66
61484;BME280;47349;55.640;37.692;2022-09-16T00:44:06;97840.72;;;9.27;97.09
61484;BME280;47349;55.640;37.692;2022-09-16T00:46:51;97830.47;;;9.24;97.06
61484;BME280;47349;55.640;37.692;2022-09-16T00:49:37;97846.34;;;9.19;96.96
61484;BME280;47349;55.640;37.692;2022-09-16T00:52:22;97831.34;;;9.11;97.50
61484;BME280;47349;55.640;37.692;2022-09-16T00:55:07;97852.09;;;9.16;98.29
61484;BME280;47349;55.640;37.692;2022-09-16T00:57:54;97850.59;;;9.26;98.20
61484;BME280;47349;55.640;37.692;2022-09-16T01:00:39;97827.63;;;9.12;98.59
61484;BME280;47349;55.640;37.692;2022-09-16T01:03:26;97836.28;;;9.14;98.54
61484;BME280;47349;55.640;37.692;2022-09-16T01:06:10;97810.56;;;9.13;99.04
61484;BME280;47349;55.640;37.692;2022-09-16T01:09:21;97835.16;;;9.35;98.52
61484;BME280;47349;55.640;37.692;2022-09-16T01:12:23;97837.81;;;9.35;98.98
61484;BME280;47349;55.640;37.692;2022-09-16T01:15:07;97806.44;;;9.17;98.43
61484;BME280;47349;55.640;37.692;2022-09-16T01:18:32;97839.63;;;9.48;98.63
61484;BME280;47349;55.640;37.692;2022-09-16T01:30:52;97840.91;;;9.39;98.22
61484;BME280;47349;55.640;37.692;2022-09-16T01:37:46;97820.03;;;9.16;98.51
61484;BME280;47349;55.640;37.692;2022-09-16T01:41:57;97839.91;;;9.26;98.49
61484;BME280;47349;55.640;37.692;2022-09-16T01:44:46;97841.16;;;9.24;98.91
61484;BME280;47349;55.640;37.692;2022-09-16T01:50:36;97820.25;;;9.14;98.86
61484;BME280;47349;55.640;37.692;2022-09-16T01:53:32;97794.38;;;9.01;98.58
61484;BME280;47349;55.640;37.692;2022-09-16T01:57:03;97839.69;;;9.35;98.04
61484;BME280;47349;55.640;37.692;2022-09-16T02:02:43;97792.94;;;9.06;98.20
61484;BME280;47349;55.640;37.692;2022-09-16T02:05:37;97815.09;;;9.13;98.68
61484;BME280;47349;55.640;37.692;2022-09-16T02:08:33;97789.63;;;9.04;98.20
61484;BME280;47349;55.640;37.692;2022-09-16T02:11:17;97815.63;;;9.28;98.44
61484;BME280;47349;55.640;37.692;2022-09-16T02:16:52;97782.19;;;9.12;97.62
61484;BME280;47349;55.640;37.692;2022-09-16T02:19:29;97811.78;;;9.17;98.09
61484;BME280;47349;55.640;37.692;2022-09-16T02:22:33;97801.09;;;9.17;97.95
61484;BME280;47349;55.640;37.692;2022-09-16T02:25:06;97804.22;;;9.14;98.15
61484;BME280;47349;55.640;37.692;2022-09-16T02:27:50;97795.38;;;9.07;97.83
61484;BME280;47349;55.640;37.692;2022-09-16T02:30:41;97808.91;;;9.19;98.14
61484;BME280;47349;55.640;37.692;2022-09-16T02:33:47;97805.78;;;9.22;97.78
61484;BME280;47349;55.640;37.692;2022-09-16T02:36:30;97805.78;;;9.29;98.05
61484;BME280;47349;55.640;37.692;2022-09-16T02:39:19;97843.13;;;9.42;97.70
61484;BME280;47349;55.640;37.692;2022-09-16T02:42:23;97827.47;;;9.45;98.15
61484;BME280;47349;55.640;37.692;2022-09-16T02:45:11;97820.91;;;9.48;97.60
61484;BME280;47349;55.640;37.692;2022-09-16T02:51:32;97812.66;;;9.49;97.00
61484;BME280;47349;55.640;37.692;2022-09-16T02:54:55;97810.38;;;9.53;97.50
61484;BME280;47349;55.640;37.692;2022-09-16T02:57:43;97792.97;;;9.37;97.14
61484;BME280;47349;55.640;37.692;2022-09-16T03:00:27;97767.78;;;9.20;96.72
61484;BME280;47349;55.640;37.692;2022-09-16T03:03:09;97789.34;;;9.25;97.19
61484;BME280;47349;55.640;37.692;2022-09-16T03:06:11;97802.84;;;9.37;96.71
61484;BME280;47349;55.640;37.692;2022-09-16T03:08:58;97809.97;;;9.49;96.98
61484;BME280;47349;55.640;37.692;2022-09-16T03:19:01;97785.34;;;9.41;96.81
61484;BME280;47349;55.640;37.692;2022-09-16T03:25:38;97807.88;;;9.58;96.47
61484;BME280;47349;55.640;37.692;2022-09-16T03:31:17;97787.44;;;9.32;96.63
61484;BME280;47349;55.640;37.692;2022-09-16T03:34:20;97811.56;;;9.57;96.92
61484;BME280;47349;55.640;37.692;2022-09-16T03:37:09;97802.78;;;9.50;97.18
61484;BME280;47349;55.640;37.692;2022-09-16T03:39:55;97772.84;;;9.35;97.09
61484;BME280;47349;55.640;37.692;2022-09-16T03:43:18;97777.47;;;9.52;97.39
61484;BME280;47349;55.640;37.692;2022-09-16T03:46:01;97792.41;;;9.60;97.00
61484;BME280;47349;55.640;37.692;2022-09-16T03:48:43;97770.22;;;9.60;96.84
61484;BME280;47349;55.640;37.692;2022-09-16T03:51:27;97770.63;;;9.57;96.59
61484;BME280;47349;55.640;37.692;2022-09-16T03:54:09;97765.28;;;9.57;96.49
61484;BME280;47349;55.640;37.692;2022-09-16T03:56:51;97780.03;;;9.66;96.22
61484;BME280;47349;55.640;37.692;2022-09-16T03:59:59;97766.81;;;9.71;96.28
61484;BME280;47349;55.640;37.692;2022-09-16T04:02:38;97783.38;;;9.86;95.96
61484;BME280;47349;55.640;37.692;2022-09-16T04:05:40;97818.13;;;10.18;95.14
61484;BME280;47349;55.640;37.692;2022-09-16T04:08:29;97785.75;;;10.01;94.96
61484;BME280;47349;55.640;37.692;2022-09-16T04:11:12;97771.16;;;9.97;94.37
61484;BME280;47349;55.640;37.692;2022-09-16T04:13:56;97809.72;;;10.14;94.56
61484;BME280;47349;55.640;37.692;2022-09-16T04:16:26;97834.78;;;10.26;94.95
61484;BME280;47349;55.640;37.692;2022-09-16T04:19:11;97809.06;;;10.19;94.80
61484;BME280;47349;55.640;37.692;2022-09-16T04:22:20;97833.91;;;10.33;95.13
61484;BME280;47349;55.640;37.692;2022-09-16T04:26:00;97833.00;;;10.39;94.58
61484;BME280;47349;55.640;37.692;2022-09-16T04:29:31;97803.03;;;10.23;94.47
61484;BME280;47349;55.640;37.692;2022-09-16T04:32:16;97800.81;;;10.20;94.38
61484;BME280;47349;55.640;37.692;2022-09-16T04:35:20;97806.38;;;10.25;94.53
61484;BME280;47349;55.640;37.692;2022-09-16T04:38:05;97787.88;;;10.17;95.08
61484;BME280;47349;55.640;37.692;2022-09-16T04:40:51;97791.13;;;10.19;95.60
61484;BME280;47349;55.640;37.692;2022-09-16T04:43:34;97773.44;;;10.18;95.39
61484;BME280;47349;55.640;37.692;2022-09-16T04:46:16;97781.03;;;10.21;95.34
61484;BME280;47349;55.640;37.692;2022-09-16T04:48:59;97826.72;;;10.51;95.66
61484;BME280;47349;55.640;37.692;2022-09-16T04:56:12;97800.34;;;10.73;95.12
61484;BME280;47349;55.640;37.692;2022-09-16T05:03:56;97765.50;;;10.73;95.31
61484;BME280;47349;55.640;37.692;2022-09-16T05:06:42;97762.97;;;10.78;95.06
61484;BME280;47349;55.640;37.692;2022-09-16T05:10:05;97787.88;;;10.97;94.94
61484;BME280;47349;55.640;37.692;2022-09-16T05:13:11;97747.91;;;10.77;94.63
61484;BME280;47349;55.640;37.692;2022-09-16T05:16:00;97777.38;;;10.96;94.86
61484;BME280;47349;55.640;37.692;2022-09-16T05:18:59;97769.34;;;10.96;94.70
61484;BME280;47349;55.640;37.692;2022-09-16T05:26:37;97753.72;;;10.93;94.67
61484;BME280;47349;55.640;37.692;2022-09-16T05:36:57;97746.78;;;11.03;95.26
61484;BME280;47349;55.640;37.692;2022-09-16T05:40:03;97761.00;;;11.04;94.72
61484;BME280;47349;55.640;37.692;2022-09-16T05:42:53;97772.72;;;11.21;95.28
61484;BME280;47349;55.640;37.692;2022-09-16T05:45:41;97763.38;;;11.12;95.14
61484;BME280;47349;55.640;37.692;2022-09-16T05:48:47;97745.63;;;11.11;95.15
61484;BME280;47349;55.640;37.692;2022-09-16T05:51:38;97748.59;;;11.21;95.54
61484;BME280;47349;55.640;37.692;2022-09-16T05:54:51;97726.28;;;11.09;95.32
61484;BME280;47349;55.640;37.692;2022-09-16T05:58:35;97739.66;;;11.27;95.11
61484;BME280;47349;55.640;37.692;2022-09-16T06:01:23;97732.81;;;11.43;94.88
61484;BME280;47349;55.640;37.692;2022-09-16T06:04:19;97721.53;;;11.41;94.72
61484;BME280;47349;55.640;37.692;2022-09-16T06:07:39;97733.91;;;11.54;94.46
61484;BME280;47349;55.640;37.692;2022-09-16T06:10:49;97767.78;;;11.78;94.26
61484;BME280;47349;55.640;37.692;2022-09-16T06:15:10;97760.94;;;11.82;94.33
61484;BME280;47349;55.640;37.692;2022-09-16T06:19:54;97714.31;;;11.53;94.04
61484;BME280;47349;55.640;37.692;2022-09-16T06:23:58;97731.84;;;11.79;94.31
61484;BME280;47349;55.640;37.692;2022-09-16T06:28:17;97728.72;;;11.82;93.62
61484;BME280;47349;55.640;37.692;2022-09-16T07:35:56;97687.84;;;14.37;83.87
61484;BME280;47349;55.640;37.692;2022-09-16T07:38:45;97702.53;;;14.47;83.78
61484;BME280;47349;55.640;37.692;2022-09-16T07:43:20;97707.06;;;14.63;83.97
61484;BME280;47349;55.640;37.692;2022-09-16T07:48:11;97691.03;;;14.51;83.57
61484;BME280;47349;55.640;37.692;2022-09-16T08:02:03;97659.22;;;15.24;80.61
61484;BME280;47349;55.640;37.692;2022-09-16T08:07:09;97639.06;;;15.37;80.07
61484;BME280;47349;55.640;37.692;2022-09-16T08:12:17;97642.56;;;15.37;79.66
61484;BME280;47349;55.640;37.692;2022-09-16T08:17:04;97655.03;;;15.38;79.28
61484;BME280;47349;55.640;37.692;2022-09-16T09:17:16;97641.81;;;16.11;78.45
61484;BME280;47349;55.640;37.692;2022-09-16T09:22:04;97653.78;;;16.21;78.09
61484;BME280;47349;55.640;37.692;2022-09-16T14:32:20;97413.03;;;13.06;93.95
61484;BME280;47349;55.640;37.692;2022-09-16T14:35:21;97420.00;;;13.07;94.15
61484;BME280;47349;55.640;37.692;2022-09-16T14:38:04;97433.34;;;13.19;95.42
61484;BME280;47349;55.640;37.692;2022-09-16T14:41:27;97458.00;;;13.27;95.63
61484;BME280;47349;55.640;37.692;2022-09-16T14:51:54;97414.34;;;12.86;97.16
61484;BME280;47349;55.640;37.692;2022-09-16T14:55:18;97400.56;;;12.66;97.86
61484;BME280;47349;55.640;37.692;2022-09-16T14:58:33;97409.78;;;12.70;98.97
61484;BME280;47349;55.640;37.692;2022-09-16T15:02:32;97442.19;;;12.80;99.64
61484;BME280;47349;55.640;37.692;2022-09-16T15:05:39;97420.59;;;12.75;100.00
61484;BME280;47349;55.640;37.692;2022-09-16T15:08:32;97403.69;;;12.58;100.00
61484;BME280;47349;55.640;37.692;2022-09-16T19:24:14;97338.97;;;12.43;100.00
61484;BME280;47349;55.640;37.692;2022-09-16T19:27:53;97360.09;;;12.56;100.00
61484;BME280;47349;55.640;37.692;2022-09-16T19:31:07;97362.72;;;12.51;100.00
61484;BME280;47349;55.640;37.692;2022-09-16T19:34:03;97337.97;;;12.32;100.00
61484;BME280;47349;55.640;37.692;2022-09-16T19:36:54;97352.28;;;12.38;100.00
61484;BME280;47349;55.640;37.692;2022-09-16T19:40:01;97363.78;;;12.50;100.00
61484;BME280;47349;55.640;37.692;2022-09-16T19:43:02;97346.69;;;12.39;100.00
61484;BME280;47349;55.640;37.692;2022-09-16T19:45:46;97353.13;;;12.38;100.00
61484;BME280;47349;55.640;37.692;2022-09-16T19:48:34;97366.94;;;12.47;100.00
61484;BME280;47349;55.640;37.692;2022-09-16T19:51:21;97359.31;;;12.39;100.00
61484;BME280;47349;55.640;37.692;2022-09-16T19:54:09;97369.25;;;12.38;100.00
61484;BME280;47349;55.640;37.692;2022-09-16T19:56:53;97372.16;;;12.37;100.00
61484;BME280;47349;55.640;37.692;2022-09-16T19:59:40;97384.84;;;12.41;100.00
61484;BME280;47349;55.640;37.692;2022-09-16T20:02:11;97388.94;;;12.44;100.00
61484;BME280;47349;55.640;37.692;2022-09-16T20:04:54;97404.56;;;12.47;100.00
61484;BME280;47349;55.640;37.692;2022-09-16T20:07:26;97335.25;;;11.98;100.00
61484;BME280;47349;55.640;37.692;2022-09-16T20:10:04;97408.69;;;12.38;100.00
61484;BME280;47349;55.640;37.692;2022-09-16T20:12:47;97366.38;;;12.11;100.00
61484;BME280;47349;55.640;37.692;2022-09-16T20:15:47;97383.63;;;12.15;100.00
61484;BME280;47349;55.640;37.692;2022-09-16T20:18:32;97383.88;;;12.14;100.00
61484;BME280;47349;55.640;37.692;2022-09-16T20:21:18;97396.34;;;12.20;100.00
61484;BME280;47349;55.640;37.692;2022-09-16T20:24:13;97367.72;;;11.97;100.00
61484;BME280;47349;55.640;37.692;2022-09-16T20:26:55;97414.56;;;12.34;100.00
61484;BME280;47349;55.640;37.692;2022-09-16T20:29:38;97421.97;;;12.27;100.00
61484;BME280;47349;55.640;37.692;2022-09-16T20:32:42;97423.75;;;12.22;100.00
61484;BME280;47349;55.640;37.692;2022-09-16T20:35:23;97376.50;;;11.92;100.00
61484;BME280;47349;55.640;37.692;2022-09-16T20:38:06;97388.81;;;12.05;100.00
61484;BME280;47349;55.640;37.692;2022-09-16T20:41:23;97397.94;;;12.04;100.00
61484;BME280;47349;55.640;37.692;2022-09-16T20:44:06;97378.53;;;11.85;100.00
61484;BME280;47349;55.640;37.692;2022-09-16T20:46:48;97396.09;;;11.93;100.00
61484;BME280;47349;55.640;37.692;2022-09-16T20:49:39;97444.41;;;12.21;100.00
61484;BME280;47349;55.640;37.692;2022-09-16T20:52:22;97412.81;;;11.95;100.00
61484;BME280;47349;55.640;37.692;2022-09-16T20:55:31;97386.00;;;11.83;100.00
61484;BME280;47349;55.640;37.692;2022-09-16T20:58:37;97420.03;;;11.94;100.00
61484;BME280;47349;55.640;37.692;2022-09-16T21:01:24;97450.16;;;12.13;100.00
61484;BME280;47349;55.640;37.692;2022-09-16T21:04:13;97419.78;;;11.96;100.00
61484;BME280;47349;55.640;37.692;2022-09-16T21:06:56;97422.13;;;11.92;100.00
61484;BME280;47349;55.640;37.692;2022-09-16T21:09:39;97453.56;;;12.08;100.00
61484;BME280;47349;55.640;37.692;2022-09-16T21:12:34;97450.56;;;12.05;100.00
61484;BME280;47349;55.640;37.692;2022-09-16T21:15:16;97456.25;;;12.08;100.00
61484;BME280;47349;55.640;37.692;2022-09-16T21:18:02;97434.03;;;11.96;100.00
61484;BME280;47349;55.640;37.692;2022-09-16T21:21:00;97426.69;;;11.92;100.00
61484;BME280;47349;55.640;37.692;2022-09-16T21:23:48;97397.56;;;11.72;100.00
61484;BME280;47349;55.640;37.692;2022-09-16T21:26:33;97446.25;;;12.04;100.00
61484;BME280;47349;55.640;37.692;2022-09-16T21:29:10;97433.13;;;11.91;100.00
61484;BME280;47349;55.640;37.692;2022-09-16T21:31:52;97469.28;;;12.00;100.00
61484;BME280;47349;55.640;37.692;2022-09-16T21:34:39;97440.03;;;11.87;100.00
61484;BME280;47349;55.640;37.692;2022-09-16T21:37:22;97413.78;;;11.65;100.00
61484;BME280;47349;55.640;37.692;2022-09-16T21:40:05;97429.88;;;11.65;100.00
61484;BME280;47349;55.640;37.692;2022-09-16T21:42:53;97447.94;;;11.81;100.00
61484;BME280;47349;55.640;37.692;2022-09-16T21:45:31;97415.81;;;11.58;100.00
61484;BME280;47349;55.640;37.692;2022-09-16T21:48:20;97448.19;;;11.80;100.00
61484;BME280;47349;55.640;37.692;2022-09-16T21:51:06;97415.25;;;11.56;100.00
61484;BME280;47349;55.640;37.692;2022-09-16T21:53:49;97473.13;;;11.92;100.00
61484;BME280;47349;55.640;37.692;2022-09-16T21:56:34;97469.63;;;11.92;100.00
61484;BME280;47349;55.640;37.692;2022-09-16T21:59:21;97469.78;;;11.85;100.00
61484;BME280;47349;55.640;37.692;2022-09-16T22:02:28;97436.91;;;11.54;100.00
61484;BME280;47349;55.640;37.692;2022-09-16T22:05:45;97472.47;;;11.73;100.00
61484;BME280;47349;55.640;37.692;2022-09-16T22:08:45;97490.06;;;11.81;100.00
61484;BME280;47349;55.640;37.692;2022-09-16T22:11:32;97454.66;;;11.44;100.00
61484;BME280;47349;55.640;37.692;2022-09-16T22:14:19;97492.91;;;11.63;100.00
61484;BME280;47349;55.640;37.692;2022-09-16T22:17:07;97476.34;;;11.54;100.00
61484;BME280;47349;55.640;37.692;2022-09-16T22:19:49;97494.56;;;11.52;100.00
61484;BME280;47349;55.640;37.692;2022-09-16T22:22:44;97490.09;;;11.46;100.00
61484;BME280;47349;55.640;37.692;2022-09-16T22:25:30;97519.59;;;11.69;100.00
61484;BME280;47349;55.640;37.692;2022-09-16T22:28:13;97509.81;;;11.63;100.00
61484;BME280;47349;55.640;37.692;2022-09-16T22:31:10;97521.59;;;11.62;100.00
61484;BME280;47349;55.640;37.692;2022-09-16T22:34:20;97527.44;;;11.59;100.00
61484;BME280;47349;55.640;37.692;2022-09-16T22:37:02;97525.81;;;11.58;100.00
61484;BME280;47349;55.640;37.692;2022-09-16T22:39:45;97530.34;;;11.57;100.00
61484;BME280;47349;55.640;37.692;2022-09-16T22:42:29;97539.69;;;11.55;100.00
61484;BME280;47349;55.640;37.692;2022-09-16T22:45:11;97488.97;;;11.18;100.00
61484;BME280;47349;55.640;37.692;2022-09-16T22:47:56;97548.31;;;11.45;100.00
61484;BME280;47349;55.640;37.692;2022-09-16T22:50:39;97500.41;;;11.14;100.00
61484;BME280;47349;55.640;37.692;2022-09-16T22:53:40;97527.78;;;11.39;100.00
61484;BME280;47349;55.640;37.692;2022-09-16T22:56:53;97523.94;;;11.35;100.00
61484;BME280;47349;55.640;37.692;2022-09-16T23:00:08;97513.13;;;11.18;100.00
61484;BME280;47349;55.640;37.692;2022-09-16T23:03:10;97526.63;;;11.23;100.00
61484;BME280;47349;55.640;37.692;2022-09-16T23:05:58;97522.31;;;11.22;100.00
61484;BME280;47349;55.640;37.692;2022-09-16T23:08:45;97547.59;;;11.26;100.00
61484;BME280;47349;55.640;37.692;2022-09-16T23:12:07;97501.06;;;10.97;100.00
61484;BME280;47349;55.640;37.692;2022-09-16T23:14:52;97533.72;;;11.06;100.00
61484;BME280;47349;55.640;37.692;2022-09-16T23:17:34;97553.22;;;11.13;100.00
61484;BME280;47349;55.640;37.692;2022-09-16T23:20:16;97549.84;;;11.18;100.00
61484;BME280;47349;55.640;37.692;2022-09-16T23:23:00;97540.72;;;11.07;100.00
61484;BME280;47349;55.640;37.692;2022-09-16T23:25:51;97543.97;;;10.97;100.00
61484;BME280;47349;55.640;37.692;2022-09-16T23:28:39;97544.19;;;10.96;100.00
61484;BME280;47349;55.640;37.692;2022-09-16T23:31:27;97545.63;;;10.98;100.00
61484;BME280;47349;55.640;37.692;2022-09-16T23:34:33;97567.28;;;10.97;100.00
61484;BME280;47349;55.640;37.692;2022-09-16T23:37:16;97562.38;;;10.94;100.00
61484;BME280;47349;55.640;37.692;2022-09-16T23:40:02;97545.56;;;10.87;100.00
61484;BME280;47349;55.640;37.692;2022-09-16T23:43:37;97534.16;;;10.79;100.00
61484;BME280;47349;55.640;37.692;2022-09-16T23:46:27;97538.69;;;10.79;100.00
61484;BME280;47349;55.640;37.692;2022-09-16T23:49:15;97553.97;;;10.90;100.00
61484;BME280;47349;55.640;37.692;2022-09-16T23:52:04;97515.56;;;10.54;100.00
61484;BME280;47349;55.640;37.692;2022-09-16T23:55:13;97556.66;;;10.78;100.00
61484;BME280;47349;55.640;37.692;2022-09-16T23:58:22;97544.25;;;10.66;100.00
